Flight Track Log - Related Links

Times and Time Zones

All times are in EDT time to prevent confusion due to time zone crossing. See the AWI3778 flight status page for this flight to view local times or setup timezone preferences in your user account.

Time Position Orientation Groundspeed Altitude Reporting Facility
EDT Latitude Longitude Course Direction KTS MPH feet Rate Location/Type
Sat 03:15:44 PM 30.5278 -81.6433 50° Northeast 191 220 1,800  Level Jacksonville Center
Sat 03:16:18 PM 30.5547 -81.6478 352° North 226 260 2,600 1,532 Climbing Jacksonville Center
Sat 03:17:00 PM 30.6874 -81.4597 44° Northeast  Level FlightAware Approximate
Sat 03:17:18 PM 30.6300 -81.6589 353° North 295 339 4,200  Level Jacksonville Center
Sat 03:18:00 PM 30.7542 -81.3833 44° Northeast  Level FlightAware Approximate
Sat 03:18:18 PM 30.7117 -81.6675 355° North 302 348 6,600  Level Jacksonville Center
Sat 03:19:00 PM 30.8277 -81.3167 33° Northeast  Level FlightAware Approximate
Sat 03:19:18 PM 30.7972 -81.6736 356° North 302 348 9,100  Level Jacksonville Center
Sat 03:20:00 PM 30.9000 -81.2633 19° North  Level FlightAware Approximate
Sat 03:20:18 PM 30.8808 -81.6725 North 297 342 11,500  Level Jacksonville Center
Sat 03:21:18 PM 30.9728 -81.6714 North 302 348 13,500 1,900 Climbing Jacksonville Center
Sat 03:22:18 PM 31.0667 -81.6703 North 321 369 15,300 1,750 Climbing Jacksonville Center
Sat 03:23:18 PM 31.1625 -81.6592 North 333 383 17,000 1,550 Climbing Jacksonville Center
Sat 03:24:18 PM 31.2583 -81.6336 13° North 338 389 18,400 1,300 Climbing Jacksonville Center
Sat 03:25:18 PM 31.3603 -81.6081 12° North 356 410 19,600 1,350 Climbing Jacksonville Center
Sat 03:26:18 PM 31.4728 -81.5747 14° North 369 425 21,100 1,200 Climbing Jacksonville Center
Sat 03:27:18 PM 31.5622 -81.5467 15° North 376 433 22,000 800 Climbing Jacksonville Center
Sat 03:28:18 PM 31.6789 -81.5181 12° North 375 432 22,700 550 Climbing Jacksonville Center
Sat 03:29:18 PM 31.7894 -81.5092 North 382 440 23,100 650 Climbing Jacksonville Center
Sat 03:30:18 PM 31.8894 -81.4978 North 393 452 24,000 950 Climbing Jacksonville Center
Sat 03:31:18 PM 32.0103 -81.4789 North 400 460 25,000 900 Climbing Jacksonville Center
Sat 03:32:18 PM 32.1056 -81.4089 32° Northeast 399 459 25,800 700 Climbing Jacksonville Center
Sat 03:33:18 PM 32.1903 -81.3264 39° Northeast 406 467 26,400 700 Climbing Jacksonville Center
Sat 03:34:18 PM 32.2789 -81.2389 40° Northeast 414 476 27,200 650 Climbing Jacksonville Center
Sat 03:35:18 PM 32.3697 -81.1511 39° Northeast 420 483 27,700 600 Climbing Jacksonville Center
Sat 03:36:18 PM 32.4747 -81.0531 38° Northeast 425 489 28,400 550 Climbing Jacksonville Center
Sat 03:37:18 PM 32.5569 -80.9675 41° Northeast 425 489 28,800 550 Climbing Jacksonville Center
Sat 03:38:18 PM 32.6536 -80.8767 38° Northeast 425 489 29,500 550 Climbing Jacksonville Center
Sat 03:39:18 PM 32.7461 -80.7858 40° Northeast 430 495 29,900 400 Climbing Jacksonville Center
Sat 03:40:18 PM 32.8406 -80.6944 39° Northeast 430 495 30,300 400 Climbing Jacksonville Center
Sat 03:41:18 PM 32.9369 -80.6006 39° Northeast 436 502 30,700 350 Climbing Jacksonville Center
Sat 03:42:18 PM 33.0333 -80.5089 39° Northeast 441 507 31,000 150 Climbing Jacksonville Center
Sat 03:43:18 PM 33.1439 -80.3944 41° Northeast 460 529 31,000  Level Jacksonville Center
Sat 03:44:18 PM 33.2361 -80.3097 38° Northeast 463 533 31,000  Level Jacksonville Center
Sat 03:45:18 PM 33.3342 -80.2100 40° Northeast 468 539 31,000  Level Jacksonville Center
Sat 03:46:18 PM 33.4444 -80.0997 40° Northeast 468 539 31,000  Level Jacksonville Center
Sat 03:47:18 PM 33.5422 -79.9969 41° Northeast 468 539 31,000  Level Jacksonville Center
Sat 03:48:18 PM 33.6422 -79.8989 39° Northeast 468 539 31,000  Level Jacksonville Center
Sat 03:49:18 PM 33.7422 -79.7981 40° Northeast 468 539 31,000  Level Jacksonville Center
Sat 03:50:18 PM 33.8397 -79.6947 41° Northeast 468 539 31,000  Level Jacksonville Center
Sat 03:51:18 PM 33.9394 -79.5958 39° Northeast 463 533 31,000  Level Jacksonville Center
Sat 03:52:49 PM 34.0717 -79.4628 40° Northeast 452 520 31,000  Level Washington Center
Sat 03:53:49 PM 34.1708 -79.3619 40° Northeast 452 520 31,000  Level Washington Center
Sat 03:54:48 PM 34.2697 -79.2658 39° Northeast 452 520 31,000  Level Washington Center
Sat 03:55:48 PM 34.3889 -79.1958 26° Northeast 457 526 31,000  Level Washington Center
Sat 03:56:49 PM 34.5014 -79.1300 26° Northeast 457 526 31,000  Level Washington Center
Sat 03:57:50 PM 34.6158 -79.0644 25° Northeast 457 526 31,000  Level Washington Center
Sat 03:58:48 PM 34.7325 -78.9961 26° Northeast 451 519 31,000  Level Washington Center
Sat 03:59:48 PM 34.8514 -78.9278 25° Northeast 457 526 31,000  Level Washington Center
Sat 04:00:49 PM 34.9639 -78.8614 26° Northeast 457 526 31,000  Level Washington Center
Sat 04:01:48 PM 35.0825 -78.7925 25° Northeast 457 526 31,000  Level Washington Center
Sat 04:02:48 PM 35.1950 -78.7258 26° Northeast 452 520 31,000  Level Washington Center
Sat 04:03:49 PM 35.3114 -78.6567 26° Northeast 452 520 31,000  Level Washington Center
Sat 04:04:50 PM 35.4322 -78.5872 25° Northeast 465 535 31,000  Level Washington Center
Sat 04:05:50 PM 35.5572 -78.5103 27° Northeast 459 528 31,000  Level Washington Center
Sat 04:06:49 PM 35.6800 -78.4381 26° Northeast 473 544 31,000  Level Washington Center
Sat 04:07:49 PM 35.7964 -78.3706 25° Northeast 466 536 31,000 -198 Level Washington Center
Sat 04:08:50 PM 35.9125 -78.3003 26° Northeast 466 536 30,600 -958 Descending Washington Center
Sat 04:09:48 PM 36.0269 -78.2322 26° Northeast 461 531 29,100 -1,627 Descending Washington Center
Sat 04:10:48 PM 36.1411 -78.1614 27° Northeast 456 525 27,400 -1,537 Descending Washington Center
Sat 04:11:49 PM 36.2572 -78.0931 25° Northeast 456 525 26,000 -694 Descending Washington Center
Sat 04:12:49 PM 36.3714 -78.0219 27° Northeast 456 525 26,000  Level Washington Center
Sat 04:13:50 PM 36.4853 -77.9531 26° Northeast 456 525 26,000  Level Washington Center
Sat 04:14:48 PM 36.6036 -77.8817 26° Northeast 456 525 26,000  Level Washington Center
Sat 04:15:48 PM 36.7178 -77.8100 27° Northeast 456 525 26,000 -248 Level Washington Center
Sat 04:16:49 PM 36.8358 -77.7406 25° Northeast 456 525 25,500 -885 Descending Washington Center
Sat 04:17:50 PM 36.9581 -77.6633 27° Northeast 461 531 24,200 -1,311 Descending Washington Center
Sat 04:18:48 PM 37.0783 -77.5886 26° Northeast 473 544 22,900 -1,119 Descending Washington Center
Sat 04:19:48 PM 37.1900 -77.5186 27° Northeast 468 539 22,000 -443 Descending Washington Center
Sat 04:20:50 PM 37.3036 -77.4483 26° Northeast 457 526 22,000  Level Washington Center
Sat 04:21:48 PM 37.4133 -77.3778 27° Northeast 446 513 22,000 -252 Level Washington Center
Sat 04:22:49 PM 37.5311 -77.3150 23° Northeast 446 513 21,500 -1,200 Descending Washington Center
Sat 04:23:48 PM 37.6481 -77.2914 North 439 505 19,600 -1,850 Descending Washington Center
Sat 04:24:49 PM 37.7633 -77.2678 North 421 484 17,800 -1,686 Descending Washington Center
Sat 04:25:49 PM 37.8719 -77.2439 10° North 416 479 16,200 -1,672 Descending Washington Center
Sat 04:26:51 PM 37.9786 -77.2225 North 398 458 14,400 -1,664 Descending Washington Center
Sat 04:27:48 PM 38.0728 -77.2061 North 385 443 12,900 -1,664 Descending Washington Center
Sat 04:28:50 PM 38.1731 -77.1844 10° North 375 432 11,100 -1,426 Descending Washington Center
Sat 04:29:50 PM 38.2819 -77.1575 11° North 365 420 10,000 -559 Descending Washington Center
Sat 04:30:48 PM 38.3739 -77.1411 North 365 420 10,000  Level Washington Center
Sat 04:31:49 PM 38.4742 -77.1219 North 365 420 10,000  Level Washington Center
Sat 04:32:50 PM 38.5725 -77.1000 10° North 365 420 10,000  Level Washington Center
Sat 04:33:50 PM 38.6708 -77.0753 11° North 360 414 10,000 -559 Level Washington Center
Sat 04:34:48 PM 38.7542 -77.0717 North 332 382 8,900 -1,820 Descending Washington Center
Sat 04:35:19 PM 38.8000 -77.0833 349° North 306 352 7,300 -2,703 Descending Potomac TRACON
Sat 04:36:19 PM 38.8667 -77.1500 322° Northwest 274 315 4,800 -2,053 Descending Potomac TRACON
Sat 04:37:13 PM 38.9167 -77.2000 322° Northwest 257 296 3,400 -1,158 Descending Potomac TRACON
Sat 04:38:13 PM 38.9500 -77.1833 21° North 177 204 2,600 -650 Descending Potomac TRACON
Sat 04:39:13 PM 38.9333 -77.1333 113° Southeast 179 206 2,100 -626 Descending Potomac TRACON
Sat 04:40:08 PM 38.9167 -77.1000 123° Southeast 146 168 1,400 -700 Descending Potomac TRACON
Sat 04:41:13 PM 38.8833 -77.0500 131° Southeast 140 161 700 -646 Descending Potomac TRACON

Login

Don't have an account? Register now (free) for customized features, flight alerts, and more!